sensor_id;sensor_type;location;lat;lon;timestamp;temperature;humidity
12634;DHT22;6382;48.614;8.880;2022-10-16T00:02:16;15.00;99.90
12634;DHT22;6382;48.614;8.880;2022-10-16T00:04:43;14.00;99.90
12634;DHT22;6382;48.614;8.880;2022-10-16T00:07:10;13.90;99.90
12634;DHT22;6382;48.614;8.880;2022-10-16T00:09:36;13.90;99.90
12634;DHT22;6382;48.614;8.880;2022-10-16T00:12:03;15.70;99.90
12634;DHT22;6382;48.614;8.880;2022-10-16T00:14:30;13.80;99.90
12634;DHT22;6382;48.614;8.880;2022-10-16T00:16:57;14.00;99.90
12634;DHT22;6382;48.614;8.880;2022-10-16T00:19:24;13.70;99.90
12634;DHT22;6382;48.614;8.880;2022-10-16T00:21:50;14.60;99.90
12634;DHT22;6382;48.614;8.880;2022-10-16T00:24:17;14.00;99.90
12634;DHT22;6382;48.614;8.880;2022-10-16T00:26:44;15.10;99.90
12634;DHT22;6382;48.614;8.880;2022-10-16T00:29:10;15.50;99.90
12634;DHT22;6382;48.614;8.880;2022-10-16T00:31:37;14.00;99.90
12634;DHT22;6382;48.614;8.880;2022-10-16T00:34:03;14.10;99.90
12634;DHT22;6382;48.614;8.880;2022-10-16T00:36:30;15.90;99.90
12634;DHT22;6382;48.614;8.880;2022-10-16T00:38:58;13.70;99.90
12634;DHT22;6382;48.614;8.880;2022-10-16T00:41:32;13.60;99.90
12634;DHT22;6382;48.614;8.880;2022-10-16T00:44:00;13.50;99.90
12634;DHT22;6382;48.614;8.880;2022-10-16T00:49:00;15.10;99.90
12634;DHT22;6382;48.614;8.880;2022-10-16T00:51:30;13.50;99.90
12634;DHT22;6382;48.614;8.880;2022-10-16T00:53:57;13.50;99.90
12634;DHT22;6382;48.614;8.880;2022-10-16T00:56:25;13.50;99.90
12634;DHT22;6382;48.614;8.880;2022-10-16T00:58:52;15.40;99.90
12634;DHT22;6382;48.614;8.880;2022-10-16T01:01:19;15.60;99.90
12634;DHT22;6382;48.614;8.880;2022-10-16T01:03:45;13.40;99.90
12634;DHT22;6382;48.614;8.880;2022-10-16T01:09:08;13.40;99.90
12634;DHT22;6382;48.614;8.880;2022-10-16T01:17:40;13.40;99.90
12634;DHT22;6382;48.614;8.880;2022-10-16T01:22:22;13.50;99.90
12634;DHT22;6382;48.614;8.880;2022-10-16T01:24:52;13.50;99.90
12634;DHT22;6382;48.614;8.880;2022-10-16T01:27:22;13.70;99.90
12634;DHT22;6382;48.614;8.880;2022-10-16T01:29:53;15.10;99.90
12634;DHT22;6382;48.614;8.880;2022-10-16T01:32:28;14.20;99.90
12634;DHT22;6382;48.614;8.880;2022-10-16T01:34:59;13.30;99.90
12634;DHT22;6382;48.614;8.880;2022-10-16T01:37:31;13.30;99.90
12634;DHT22;6382;48.614;8.880;2022-10-16T01:39:59;13.30;99.90
12634;DHT22;6382;48.614;8.880;2022-10-16T01:42:29;13.20;99.90
12634;DHT22;6382;48.614;8.880;2022-10-16T01:44:57;13.30;99.90
12634;DHT22;6382;48.614;8.880;2022-10-16T01:47:25;13.30;99.90
12634;DHT22;6382;48.614;8.880;2022-10-16T01:49:53;13.40;99.90
12634;DHT22;6382;48.614;8.880;2022-10-16T01:52:22;13.40;99.90
12634;DHT22;6382;48.614;8.880;2022-10-16T01:54:51;15.20;99.90
12634;DHT22;6382;48.614;8.880;2022-10-16T01:57:18;15.30;99.90
12634;DHT22;6382;48.614;8.880;2022-10-16T01:59:51;14.60;99.90
12634;DHT22;6382;48.614;8.880;2022-10-16T02:02:19;13.70;99.90
12634;DHT22;6382;48.614;8.880;2022-10-16T02:04:51;14.20;99.90
12634;DHT22;6382;48.614;8.880;2022-10-16T02:07:19;13.70;99.90
12634;DHT22;6382;48.614;8.880;2022-10-16T02:09:46;13.70;99.90
12634;DHT22;6382;48.614;8.880;2022-10-16T02:12:19;14.90;99.90
12634;DHT22;6382;48.614;8.880;2022-10-16T02:14:48;13.80;99.90
12634;DHT22;6382;48.614;8.880;2022-10-16T02:17:16;14.90;99.90
12634;DHT22;6382;48.614;8.880;2022-10-16T02:19:43;15.10;99.90
12634;DHT22;6382;48.614;8.880;2022-10-16T02:22:16;13.70;99.90
12634;DHT22;6382;48.614;8.880;2022-10-16T02:24:54;16.10;99.90
12634;DHT22;6382;48.614;8.880;2022-10-16T02:27:33;13.70;99.90
12634;DHT22;6382;48.614;8.880;2022-10-16T02:30:09;13.70;99.90
12634;DHT22;6382;48.614;8.880;2022-10-16T02:32:39;13.70;99.90
12634;DHT22;6382;48.614;8.880;2022-10-16T02:35:08;13.70;99.90
12634;DHT22;6382;48.614;8.880;2022-10-16T02:37:35;16.10;99.90
12634;DHT22;6382;48.614;8.880;2022-10-16T02:40:02;14.60;99.90
12634;DHT22;6382;48.614;8.880;2022-10-16T02:42:35;13.60;99.90
12634;DHT22;6382;48.614;8.880;2022-10-16T02:45:03;13.60;99.90
12634;DHT22;6382;48.614;8.880;2022-10-16T02:47:30;13.60;99.90
12634;DHT22;6382;48.614;8.880;2022-10-16T02:49:57;13.60;99.90
12634;DHT22;6382;48.614;8.880;2022-10-16T02:52:23;14.20;99.90
12634;DHT22;6382;48.614;8.880;2022-10-16T02:54:51;16.50;99.90
12634;DHT22;6382;48.614;8.880;2022-10-16T02:57:18;15.20;99.90
12634;DHT22;6382;48.614;8.880;2022-10-16T02:59:45;14.80;99.90
12634;DHT22;6382;48.614;8.880;2022-10-16T03:02:11;14.20;99.90
12634;DHT22;6382;48.614;8.880;2022-10-16T03:04:38;13.80;99.90
12634;DHT22;6382;48.614;8.880;2022-10-16T03:07:05;14.90;99.90
12634;DHT22;6382;48.614;8.880;2022-10-16T03:09:32;13.90;99.90
12634;DHT22;6382;48.614;8.880;2022-10-16T03:11:58;14.90;99.90
12634;DHT22;6382;48.614;8.880;2022-10-16T03:14:25;14.40;99.90
12634;DHT22;6382;48.614;8.880;2022-10-16T03:16:56;14.00;99.90
12634;DHT22;6382;48.614;8.880;2022-10-16T03:19:23;13.90;99.90
12634;DHT22;6382;48.614;8.880;2022-10-16T03:21:50;14.00;99.90
12634;DHT22;6382;48.614;8.880;2022-10-16T03:24:16;15.00;99.90
12634;DHT22;6382;48.614;8.880;2022-10-16T03:26:43;15.00;99.90
12634;DHT22;6382;48.614;8.880;2022-10-16T03:29:10;15.70;99.90
12634;DHT22;6382;48.614;8.880;2022-10-16T03:31:36;15.30;99.90
12634;DHT22;6382;48.614;8.880;2022-10-16T03:34:03;14.00;99.90
12634;DHT22;6382;48.614;8.880;2022-10-16T03:36:30;13.90;99.90
12634;DHT22;6382;48.614;8.880;2022-10-16T03:38:56;15.10;99.90
12634;DHT22;6382;48.614;8.880;2022-10-16T03:41:23;14.50;99.90
12634;DHT22;6382;48.614;8.880;2022-10-16T03:43:50;16.50;99.90
12634;DHT22;6382;48.614;8.880;2022-10-16T03:46:16;14.00;99.90
12634;DHT22;6382;48.614;8.880;2022-10-16T03:48:43;14.80;99.90
12634;DHT22;6382;48.614;8.880;2022-10-16T03:51:09;13.90;99.90
12634;DHT22;6382;48.614;8.880;2022-10-16T03:53:36;13.90;99.90
12634;DHT22;6382;48.614;8.880;2022-10-16T03:56:03;14.40;99.90
12634;DHT22;6382;48.614;8.880;2022-10-16T03:58:30;13.90;99.90
12634;DHT22;6382;48.614;8.880;2022-10-16T04:00:56;15.10;99.90
12634;DHT22;6382;48.614;8.880;2022-10-16T04:03:23;15.70;99.90
12634;DHT22;6382;48.614;8.880;2022-10-16T04:05:50;14.90;99.90
12634;DHT22;6382;48.614;8.880;2022-10-16T04:08:16;14.00;99.90
12634;DHT22;6382;48.614;8.880;2022-10-16T04:10:51;13.90;99.90
12634;DHT22;6382;48.614;8.880;2022-10-16T04:13:18;15.00;99.90
12634;DHT22;6382;48.614;8.880;2022-10-16T04:15:49;13.90;99.90
12634;DHT22;6382;48.614;8.880;2022-10-16T04:18:16;14.50;99.90
12634;DHT22;6382;48.614;8.880;2022-10-16T04:20:43;15.40;99.90
12634;DHT22;6382;48.614;8.880;2022-10-16T04:23:09;14.50;99.90
12634;DHT22;6382;48.614;8.880;2022-10-16T04:25:36;16.00;99.90
12634;DHT22;6382;48.614;8.880;2022-10-16T04:28:03;15.60;99.90
12634;DHT22;6382;48.614;8.880;2022-10-16T04:30:29;14.00;99.90
12634;DHT22;6382;48.614;8.880;2022-10-16T04:32:56;14.60;99.90
12634;DHT22;6382;48.614;8.880;2022-10-16T04:35:23;14.60;99.90
12634;DHT22;6382;48.614;8.880;2022-10-16T04:37:50;14.10;99.90
12634;DHT22;6382;48.614;8.880;2022-10-16T04:40:16;15.10;99.90
12634;DHT22;6382;48.614;8.880;2022-10-16T04:42:43;15.30;99.90
12634;DHT22;6382;48.614;8.880;2022-10-16T04:45:10;14.60;99.90
12634;DHT22;6382;48.614;8.880;2022-10-16T04:47:42;14.90;99.90
12634;DHT22;6382;48.614;8.880;2022-10-16T04:50:09;15.60;99.90
12634;DHT22;6382;48.614;8.880;2022-10-16T04:52:35;15.70;99.90
12634;DHT22;6382;48.614;8.880;2022-10-16T04:55:02;14.10;99.90
12634;DHT22;6382;48.614;8.880;2022-10-16T04:57:29;14.10;99.90
12634;DHT22;6382;48.614;8.880;2022-10-16T04:59:56;14.00;99.90
12634;DHT22;6382;48.614;8.880;2022-10-16T05:02:22;14.40;99.90
12634;DHT22;6382;48.614;8.880;2022-10-16T05:04:49;15.00;99.90
12634;DHT22;6382;48.614;8.880;2022-10-16T05:07:16;14.60;99.90
12634;DHT22;6382;48.614;8.880;2022-10-16T05:09:42;16.00;99.90
12634;DHT22;6382;48.614;8.880;2022-10-16T05:12:09;14.60;99.90
12634;DHT22;6382;48.614;8.880;2022-10-16T05:14:36;15.00;99.90
12634;DHT22;6382;48.614;8.880;2022-10-16T05:17:02;15.30;99.90
12634;DHT22;6382;48.614;8.880;2022-10-16T05:19:29;13.80;99.90
12634;DHT22;6382;48.614;8.880;2022-10-16T05:21:56;14.70;99.90
12634;DHT22;6382;48.614;8.880;2022-10-16T05:24:22;14.40;99.90
12634;DHT22;6382;48.614;8.880;2022-10-16T05:26:49;14.40;99.90
12634;DHT22;6382;48.614;8.880;2022-10-16T05:29:16;13.70;99.90
12634;DHT22;6382;48.614;8.880;2022-10-16T05:31:43;14.80;99.90
12634;DHT22;6382;48.614;8.880;2022-10-16T05:34:09;15.40;99.90
12634;DHT22;6382;48.614;8.880;2022-10-16T05:36:36;14.20;99.90
12634;DHT22;6382;48.614;8.880;2022-10-16T05:39:03;13.60;99.90
12634;DHT22;6382;48.614;8.880;2022-10-16T05:41:29;13.60;99.90
12634;DHT22;6382;48.614;8.880;2022-10-16T05:43:56;14.50;99.90
12634;DHT22;6382;48.614;8.880;2022-10-16T05:46:23;14.20;99.90
12634;DHT22;6382;48.614;8.880;2022-10-16T05:48:51;14.00;99.90
12634;DHT22;6382;48.614;8.880;2022-10-16T05:51:18;14.60;99.90
12634;DHT22;6382;48.614;8.880;2022-10-16T05:53:44;13.60;99.90
12634;DHT22;6382;48.614;8.880;2022-10-16T05:56:11;14.20;99.90
12634;DHT22;6382;48.614;8.880;2022-10-16T05:58:39;14.10;99.90
12634;DHT22;6382;48.614;8.880;2022-10-16T06:01:12;15.40;99.90
12634;DHT22;6382;48.614;8.880;2022-10-16T06:03:39;14.90;99.90
12634;DHT22;6382;48.614;8.880;2022-10-16T06:06:09;15.50;99.90
12634;DHT22;6382;48.614;8.880;2022-10-16T06:08:38;13.80;99.90
12634;DHT22;6382;48.614;8.880;2022-10-16T06:11:05;14.80;99.90
12634;DHT22;6382;48.614;8.880;2022-10-16T06:13:32;14.90;99.90
12634;DHT22;6382;48.614;8.880;2022-10-16T06:15:59;13.90;99.90
12634;DHT22;6382;48.614;8.880;2022-10-16T06:18:27;13.80;99.90
12634;DHT22;6382;48.614;8.880;2022-10-16T06:20:54;15.80;99.90
12634;DHT22;6382;48.614;8.880;2022-10-16T06:23:21;14.00;99.90
12634;DHT22;6382;48.614;8.880;2022-10-16T06:25:48;14.50;99.90
12634;DHT22;6382;48.614;8.880;2022-10-16T06:28:15;14.90;99.90
12634;DHT22;6382;48.614;8.880;2022-10-16T06:30:42;13.90;99.90
12634;DHT22;6382;48.614;8.880;2022-10-16T06:33:10;13.90;99.90
12634;DHT22;6382;48.614;8.880;2022-10-16T06:35:37;15.00;99.90
12634;DHT22;6382;48.614;8.880;2022-10-16T06:38:03;14.00;99.90
12634;DHT22;6382;48.614;8.880;2022-10-16T06:40:30;14.00;99.90
12634;DHT22;6382;48.614;8.880;2022-10-16T06:42:57;14.10;99.90
12634;DHT22;6382;48.614;8.880;2022-10-16T06:45:23;14.70;99.90
12634;DHT22;6382;48.614;8.880;2022-10-16T06:47:50;16.30;99.90
12634;DHT22;6382;48.614;8.880;2022-10-16T06:50:17;14.20;99.90
12634;DHT22;6382;48.614;8.880;2022-10-16T06:52:43;15.80;99.90
12634;DHT22;6382;48.614;8.880;2022-10-16T06:55:10;14.20;99.90
12634;DHT22;6382;48.614;8.880;2022-10-16T06:57:37;15.10;99.90
12634;DHT22;6382;48.614;8.880;2022-10-16T07:00:03;14.40;99.90
12634;DHT22;6382;48.614;8.880;2022-10-16T07:02:30;14.50;99.90
12634;DHT22;6382;48.614;8.880;2022-10-16T07:04:57;14.50;99.90
12634;DHT22;6382;48.614;8.880;2022-10-16T07:07:23;15.70;99.90
12634;DHT22;6382;48.614;8.880;2022-10-16T07:09:52;14.60;99.90
12634;DHT22;6382;48.614;8.880;2022-10-16T07:12:19;14.70;99.90
12634;DHT22;6382;48.614;8.880;2022-10-16T07:14:46;14.70;99.90
12634;DHT22;6382;48.614;8.880;2022-10-16T07:17:12;16.00;99.90
12634;DHT22;6382;48.614;8.880;2022-10-16T07:19:39;15.90;99.90
12634;DHT22;6382;48.614;8.880;2022-10-16T07:22:06;15.80;99.90
12634;DHT22;6382;48.614;8.880;2022-10-16T07:24:33;15.90;99.90
12634;DHT22;6382;48.614;8.880;2022-10-16T07:26:59;14.80;99.90
12634;DHT22;6382;48.614;8.880;2022-10-16T07:29:26;14.80;99.90
12634;DHT22;6382;48.614;8.880;2022-10-16T07:31:53;16.40;99.90
12634;DHT22;6382;48.614;8.880;2022-10-16T07:34:19;15.30;99.90
12634;DHT22;6382;48.614;8.880;2022-10-16T07:36:48;16.30;99.90
12634;DHT22;6382;48.614;8.880;2022-10-16T07:39:16;15.90;99.90
12634;DHT22;6382;48.614;8.880;2022-10-16T07:41:43;15.00;99.90
12634;DHT22;6382;48.614;8.880;2022-10-16T07:44:09;15.70;99.90
12634;DHT22;6382;48.614;8.880;2022-10-16T07:46:36;15.60;99.90
12634;DHT22;6382;48.614;8.880;2022-10-16T07:49:03;16.60;99.90
12634;DHT22;6382;48.614;8.880;2022-10-16T07:51:30;15.30;99.90
12634;DHT22;6382;48.614;8.880;2022-10-16T07:53:57;16.30;99.90
12634;DHT22;6382;48.614;8.880;2022-10-16T07:56:23;17.20;99.90
12634;DHT22;6382;48.614;8.880;2022-10-16T07:58:50;15.60;99.90
12634;DHT22;6382;48.614;8.880;2022-10-16T08:01:17;15.90;99.90
12634;DHT22;6382;48.614;8.880;2022-10-16T08:03:45;15.50;99.90
12634;DHT22;6382;48.614;8.880;2022-10-16T08:06:12;15.60;99.90
12634;DHT22;6382;48.614;8.880;2022-10-16T08:08:39;15.80;99.90
12634;DHT22;6382;48.614;8.880;2022-10-16T08:11:06;16.60;99.90
12634;DHT22;6382;48.614;8.880;2022-10-16T08:13:32;17.20;99.90
12634;DHT22;6382;48.614;8.880;2022-10-16T08:15:59;17.10;99.90
12634;DHT22;6382;48.614;8.880;2022-10-16T08:18:26;16.00;99.90
12634;DHT22;6382;48.614;8.880;2022-10-16T08:20:56;17.80;99.90
12634;DHT22;6382;48.614;8.880;2022-10-16T08:23:23;16.10;99.90
12634;DHT22;6382;48.614;8.880;2022-10-16T08:25:52;16.70;99.90
12634;DHT22;6382;48.614;8.880;2022-10-16T08:28:19;17.20;99.90
12634;DHT22;6382;48.614;8.880;2022-10-16T08:30:46;16.20;99.90
12634;DHT22;6382;48.614;8.880;2022-10-16T08:33:13;16.30;99.90
12634;DHT22;6382;48.614;8.880;2022-10-16T08:35:39;16.20;99.90
12634;DHT22;6382;48.614;8.880;2022-10-16T08:38:06;17.40;99.90
12634;DHT22;6382;48.614;8.880;2022-10-16T08:40:34;16.20;99.90
12634;DHT22;6382;48.614;8.880;2022-10-16T08:48:20;16.10;99.90
12634;DHT22;6382;48.614;8.880;2022-10-16T08:50:50;16.10;99.90
12634;DHT22;6382;48.614;8.880;2022-10-16T08:53:19;16.20;99.90
12634;DHT22;6382;48.614;8.880;2022-10-16T08:55:50;17.70;99.90
12634;DHT22;6382;48.614;8.880;2022-10-16T08:58:22;16.30;99.90
12634;DHT22;6382;48.614;8.880;2022-10-16T09:00:53;16.50;99.90
12634;DHT22;6382;48.614;8.880;2022-10-16T09:03:36;16.60;99.90
12634;DHT22;6382;48.614;8.880;2022-10-16T09:06:07;16.60;99.90
12634;DHT22;6382;48.614;8.880;2022-10-16T09:08:40;18.30;99.90
12634;DHT22;6382;48.614;8.880;2022-10-16T09:11:23;17.40;99.90
12634;DHT22;6382;48.614;8.880;2022-10-16T09:13:55;16.90;99.90
12634;DHT22;6382;48.614;8.880;2022-10-16T09:16:33;17.00;99.90
12634;DHT22;6382;48.614;8.880;2022-10-16T09:21:31;17.70;99.90
12634;DHT22;6382;48.614;8.880;2022-10-16T09:24:12;17.40;99.90
12634;DHT22;6382;48.614;8.880;2022-10-16T09:26:39;17.50;99.90
12634;DHT22;6382;48.614;8.880;2022-10-16T09:29:06;17.70;99.90
12634;DHT22;6382;48.614;8.880;2022-10-16T09:31:35;18.50;99.90
12634;DHT22;6382;48.614;8.880;2022-10-16T09:34:02;18.20;99.90
12634;DHT22;6382;48.614;8.880;2022-10-16T09:36:39;18.20;99.90
12634;DHT22;6382;48.614;8.880;2022-10-16T09:39:08;17.90;99.90
12634;DHT22;6382;48.614;8.880;2022-10-16T09:41:35;18.00;99.90
12634;DHT22;6382;48.614;8.880;2022-10-16T09:44:03;18.10;99.90
12634;DHT22;6382;48.614;8.880;2022-10-16T09:46:36;18.10;99.90
12634;DHT22;6382;48.614;8.880;2022-10-16T09:49:19;18.20;99.90
12634;DHT22;6382;48.614;8.880;2022-10-16T09:51:46;18.30;99.90
12634;DHT22;6382;48.614;8.880;2022-10-16T09:54:15;19.10;99.90
12634;DHT22;6382;48.614;8.880;2022-10-16T09:56:41;18.50;99.90
12634;DHT22;6382;48.614;8.880;2022-10-16T09:59:12;18.60;99.90
12634;DHT22;6382;48.614;8.880;2022-10-16T10:01:40;20.30;99.90
12634;DHT22;6382;48.614;8.880;2022-10-16T10:04:07;18.90;99.90
12634;DHT22;6382;48.614;8.880;2022-10-16T10:06:36;18.90;99.90
12634;DHT22;6382;48.614;8.880;2022-10-16T10:09:14;19.00;99.90
12634;DHT22;6382;48.614;8.880;2022-10-16T10:11:52;19.10;99.90
12634;DHT22;6382;48.614;8.880;2022-10-16T10:14:20;19.20;99.90
12634;DHT22;6382;48.614;8.880;2022-10-16T10:16:48;19.30;99.90
12634;DHT22;6382;48.614;8.880;2022-10-16T10:19:15;19.40;99.90
12634;DHT22;6382;48.614;8.880;2022-10-16T10:21:42;19.40;99.90
12634;DHT22;6382;48.614;8.880;2022-10-16T10:24:12;19.50;99.90
12634;DHT22;6382;48.614;8.880;2022-10-16T10:26:41;19.60;99.90
12634;DHT22;6382;48.614;8.880;2022-10-16T10:29:36;19.60;99.90
12634;DHT22;6382;48.614;8.880;2022-10-16T10:32:08;19.80;99.90
12634;DHT22;6382;48.614;8.880;2022-10-16T10:34:56;19.90;99.90
12634;DHT22;6382;48.614;8.880;2022-10-16T10:48:13;20.10;99.90
12634;DHT22;6382;48.614;8.880;2022-10-16T10:50:46;20.10;99.90
12634;DHT22;6382;48.614;8.880;2022-10-16T10:55:44;20.50;99.90
12634;DHT22;6382;48.614;8.880;2022-10-16T11:01:12;19.90;99.90
12634;DHT22;6382;48.614;8.880;2022-10-16T11:06:15;19.90;99.90
12634;DHT22;6382;48.614;8.880;2022-10-16T11:08:47;20.00;99.90
12634;DHT22;6382;48.614;8.880;2022-10-16T11:11:17;20.00;99.90
12634;DHT22;6382;48.614;8.880;2022-10-16T11:13:55;20.10;99.90
12634;DHT22;6382;48.614;8.880;2022-10-16T11:16:28;20.20;99.90
12634;DHT22;6382;48.614;8.880;2022-10-16T11:19:10;20.40;99.90
12634;DHT22;6382;48.614;8.880;2022-10-16T11:21:42;20.60;99.90
12634;DHT22;6382;48.614;8.880;2022-10-16T11:27:13;20.80;99.90
12634;DHT22;6382;48.614;8.880;2022-10-16T11:29:53;21.00;99.90
12634;DHT22;6382;48.614;8.880;2022-10-16T11:32:22;21.10;99.90
12634;DHT22;6382;48.614;8.880;2022-10-16T11:34:52;22.80;99.90
12634;DHT22;6382;48.614;8.880;2022-10-16T11:40:22;21.20;99.90
12634;DHT22;6382;48.614;8.880;2022-10-16T11:42:52;21.20;99.90
12634;DHT22;6382;48.614;8.880;2022-10-16T11:45:33;21.20;99.90
12634;DHT22;6382;48.614;8.880;2022-10-16T11:48:08;21.30;99.90
12634;DHT22;6382;48.614;8.880;2022-10-16T11:50:48;21.30;99.90
12634;DHT22;6382;48.614;8.880;2022-10-16T11:55:49;21.50;99.90
12634;DHT22;6382;48.614;8.880;2022-10-16T11:58:32;21.60;99.90
12634;DHT22;6382;48.614;8.880;2022-10-16T12:03:45;21.80;99.90
12634;DHT22;6382;48.614;8.880;2022-10-16T12:08:45;21.80;99.90
12634;DHT22;6382;48.614;8.880;2022-10-16T12:14:07;21.60;99.90
12634;DHT22;6382;48.614;8.880;2022-10-16T12:16:50;21.60;99.90
12634;DHT22;6382;48.614;8.880;2022-10-16T12:19:17;21.60;99.90
12634;DHT22;6382;48.614;8.880;2022-10-16T12:21:45;22.40;99.90
12634;DHT22;6382;48.614;8.880;2022-10-16T12:24:26;21.50;99.90
12634;DHT22;6382;48.614;8.880;2022-10-16T12:26:54;21.50;99.90
12634;DHT22;6382;48.614;8.880;2022-10-16T12:29:35;22.00;99.90
12634;DHT22;6382;48.614;8.880;2022-10-16T12:32:06;21.30;99.90
12634;DHT22;6382;48.614;8.880;2022-10-16T12:35:16;21.20;99.90
12634;DHT22;6382;48.614;8.880;2022-10-16T12:37:43;21.20;99.90
12634;DHT22;6382;48.614;8.880;2022-10-16T12:40:14;21.20;99.90
12634;DHT22;6382;48.614;8.880;2022-10-16T12:42:41;21.20;99.90
12634;DHT22;6382;48.614;8.880;2022-10-16T12:47:54;21.40;99.90
12634;DHT22;6382;48.614;8.880;2022-10-16T12:52:54;21.70;99.90
12634;DHT22;6382;48.614;8.880;2022-10-16T12:55:21;21.80;99.90
12634;DHT22;6382;48.614;8.880;2022-10-16T13:08:35;22.00;99.90
12634;DHT22;6382;48.614;8.880;2022-10-16T13:11:23;21.90;99.90
12634;DHT22;6382;48.614;8.880;2022-10-16T13:26:41;21.50;99.90
12634;DHT22;6382;48.614;8.880;2022-10-16T13:29:11;21.50;99.90
12634;DHT22;6382;48.614;8.880;2022-10-16T13:31:38;21.50;99.90
12634;DHT22;6382;48.614;8.880;2022-10-16T13:34:05;21.50;99.90
12634;DHT22;6382;48.614;8.880;2022-10-16T13:36:47;21.40;99.90
12634;DHT22;6382;48.614;8.880;2022-10-16T13:42:00;21.20;99.90
12634;DHT22;6382;48.614;8.880;2022-10-16T13:44:40;21.20;99.90
12634;DHT22;6382;48.614;8.880;2022-10-16T13:47:12;21.20;99.90
12634;DHT22;6382;48.614;8.880;2022-10-16T13:49:41;21.30;99.90
12634;DHT22;6382;48.614;8.880;2022-10-16T13:52:26;23.20;99.90
12634;DHT22;6382;48.614;8.880;2022-10-16T13:54:53;21.50;99.90
12634;DHT22;6382;48.614;8.880;2022-10-16T13:57:27;21.50;99.90
12634;DHT22;6382;48.614;8.880;2022-10-16T13:59:54;21.60;99.90
12634;DHT22;6382;48.614;8.880;2022-10-16T14:02:29;21.60;99.90
12634;DHT22;6382;48.614;8.880;2022-10-16T14:04:57;21.60;99.90
12634;DHT22;6382;48.614;8.880;2022-10-16T14:07:25;21.60;99.90
12634;DHT22;6382;48.614;8.880;2022-10-16T14:09:53;21.80;99.90
12634;DHT22;6382;48.614;8.880;2022-10-16T14:12:20;21.60;99.90
12634;DHT22;6382;48.614;8.880;2022-10-16T14:14:53;21.60;99.90
12634;DHT22;6382;48.614;8.880;2022-10-16T14:17:24;21.50;99.90
12634;DHT22;6382;48.614;8.880;2022-10-16T14:19:55;21.50;99.90
12634;DHT22;6382;48.614;8.880;2022-10-16T14:22:29;21.50;99.90
12634;DHT22;6382;48.614;8.880;2022-10-16T14:24:56;21.50;99.90
12634;DHT22;6382;48.614;8.880;2022-10-16T14:27:33;21.60;99.90
12634;DHT22;6382;48.614;8.880;2022-10-16T14:30:17;21.70;99.90
12634;DHT22;6382;48.614;8.880;2022-10-16T14:33:01;21.70;99.90
12634;DHT22;6382;48.614;8.880;2022-10-16T14:35:37;21.70;99.90
12634;DHT22;6382;48.614;8.880;2022-10-16T14:38:05;21.70;99.90
12634;DHT22;6382;48.614;8.880;2022-10-16T14:40:33;21.70;99.90
12634;DHT22;6382;48.614;8.880;2022-10-16T14:43:01;21.70;99.90
12634;DHT22;6382;48.614;8.880;2022-10-16T14:45:29;21.70;99.90
12634;DHT22;6382;48.614;8.880;2022-10-16T14:48:04;21.70;99.90
12634;DHT22;6382;48.614;8.880;2022-10-16T14:50:32;21.70;99.90
12634;DHT22;6382;48.614;8.880;2022-10-16T14:52:58;22.20;99.90
12634;DHT22;6382;48.614;8.880;2022-10-16T14:55:25;22.40;99.90
12634;DHT22;6382;48.614;8.880;2022-10-16T14:57:52;22.10;99.90
12634;DHT22;6382;48.614;8.880;2022-10-16T15:00:25;21.60;99.90
12634;DHT22;6382;48.614;8.880;2022-10-16T15:02:51;21.60;99.90
12634;DHT22;6382;48.614;8.880;2022-10-16T15:05:19;21.60;99.90
12634;DHT22;6382;48.614;8.880;2022-10-16T15:07:47;21.50;99.90
12634;DHT22;6382;48.614;8.880;2022-10-16T15:10:13;21.40;99.90
12634;DHT22;6382;48.614;8.880;2022-10-16T15:12:40;21.40;99.90
12634;DHT22;6382;48.614;8.880;2022-10-16T15:17:52;21.20;99.90
12634;DHT22;6382;48.614;8.880;2022-10-16T15:20:22;21.10;99.90
12634;DHT22;6382;48.614;8.880;2022-10-16T15:22:49;21.80;99.90
12634;DHT22;6382;48.614;8.880;2022-10-16T15:27:43;21.00;99.90
12634;DHT22;6382;48.614;8.880;2022-10-16T15:30:09;20.90;99.90
12634;DHT22;6382;48.614;8.880;2022-10-16T15:32:36;20.80;99.90
12634;DHT22;6382;48.614;8.880;2022-10-16T15:35:03;20.80;99.90
12634;DHT22;6382;48.614;8.880;2022-10-16T15:37:30;20.70;99.90
12634;DHT22;6382;48.614;8.880;2022-10-16T15:39:56;20.60;99.90
12634;DHT22;6382;48.614;8.880;2022-10-16T15:42:23;22.00;99.90
12634;DHT22;6382;48.614;8.880;2022-10-16T15:44:50;20.50;99.90
12634;DHT22;6382;48.614;8.880;2022-10-16T15:47:17;21.30;99.90
12634;DHT22;6382;48.614;8.880;2022-10-16T15:49:43;20.30;99.90
12634;DHT22;6382;48.614;8.880;2022-10-16T15:52:10;21.00;99.90
12634;DHT22;6382;48.614;8.880;2022-10-16T15:54:37;20.10;99.90
12634;DHT22;6382;48.614;8.880;2022-10-16T15:57:03;20.00;99.90
12634;DHT22;6382;48.614;8.880;2022-10-16T15:59:30;19.90;99.90
12634;DHT22;6382;48.614;8.880;2022-10-16T16:01:57;19.80;99.90
12634;DHT22;6382;48.614;8.880;2022-10-16T16:04:24;20.00;99.90
12634;DHT22;6382;48.614;8.880;2022-10-16T16:07:09;19.60;99.90
12634;DHT22;6382;48.614;8.880;2022-10-16T16:09:35;19.50;99.90
12634;DHT22;6382;48.614;8.880;2022-10-16T16:12:02;19.40;99.90
12634;DHT22;6382;48.614;8.880;2022-10-16T16:14:29;19.20;99.90
12634;DHT22;6382;48.614;8.880;2022-10-16T16:16:58;19.10;99.90
12634;DHT22;6382;48.614;8.880;2022-10-16T16:19:25;19.00;99.90
12634;DHT22;6382;48.614;8.880;2022-10-16T16:21:51;18.90;99.90
12634;DHT22;6382;48.614;8.880;2022-10-16T16:24:18;18.80;99.90
12634;DHT22;6382;48.614;8.880;2022-10-16T16:26:45;18.70;99.90
12634;DHT22;6382;48.614;8.880;2022-10-16T16:29:13;18.60;99.90
12634;DHT22;6382;48.614;8.880;2022-10-16T16:31:40;19.40;99.90
12634;DHT22;6382;48.614;8.880;2022-10-16T16:34:07;18.40;99.90
12634;DHT22;6382;48.614;8.880;2022-10-16T16:36:34;18.30;99.90
12634;DHT22;6382;48.614;8.880;2022-10-16T16:39:01;18.30;99.90
12634;DHT22;6382;48.614;8.880;2022-10-16T16:41:28;18.10;99.90
12634;DHT22;6382;48.614;8.880;2022-10-16T16:44:02;20.10;99.90
12634;DHT22;6382;48.614;8.880;2022-10-16T16:46:30;17.90;99.90
12634;DHT22;6382;48.614;8.880;2022-10-16T16:48:57;19.30;99.90
12634;DHT22;6382;48.614;8.880;2022-10-16T16:51:24;19.30;99.90
12634;DHT22;6382;48.614;8.880;2022-10-16T16:53:52;17.50;99.90
12634;DHT22;6382;48.614;8.880;2022-10-16T16:56:19;17.40;99.90
12634;DHT22;6382;48.614;8.880;2022-10-16T16:58:47;18.30;99.90
12634;DHT22;6382;48.614;8.880;2022-10-16T17:01:14;17.90;99.90
12634;DHT22;6382;48.614;8.880;2022-10-16T17:03:46;19.40;99.90
12634;DHT22;6382;48.614;8.880;2022-10-16T17:06:15;17.20;99.90
12634;DHT22;6382;48.614;8.880;2022-10-16T17:08:46;17.90;99.90
12634;DHT22;6382;48.614;8.880;2022-10-16T17:11:14;16.80;99.90
12634;DHT22;6382;48.614;8.880;2022-10-16T17:13:40;16.70;99.90
12634;DHT22;6382;48.614;8.880;2022-10-16T17:16:07;16.60;99.90
12634;DHT22;6382;48.614;8.880;2022-10-16T17:18:34;18.30;99.90
12634;DHT22;6382;48.614;8.880;2022-10-16T17:21:02;16.40;99.90
12634;DHT22;6382;48.614;8.880;2022-10-16T17:23:29;16.30;99.90
12634;DHT22;6382;48.614;8.880;2022-10-16T17:25:56;16.20;99.90
12634;DHT22;6382;48.614;8.880;2022-10-16T17:28:23;16.10;99.90
12634;DHT22;6382;48.614;8.880;2022-10-16T17:30:50;16.00;99.90